• Join FlightAware (Why Join?)
  • Login
  • US Flag 
02:48AM EST


 

Airport Tracker/Info


-or-


 

Live Flight TrackerFlight Track Log ✈ UAL1494 ✈ 02-Oct-2013 ✈ KSEA - KSFO

Flight Track Log - Related Links

Times and Time Zones

All times are in EDT time to prevent confusion due to time zone crossing. See the UAL1494 flight status page for this flight to view local times or setup timezone preferences in your user account.

Time Position Orientation Groundspeed Altitude Reporting Facility
EDT Latitude Longitude Course Direction KTS MPH feet Rate Location/Type
12:45PM 47.4325 -122.3086 176° South 149 171 1,800  Level Seattle Center
12:45PM 47.4200 -122.3089 181° South 178 205 2,400 2,640 Climbing Seattle Center
12:45PM 47.4108 -122.3108 188° South 175 201 2,900 3,120 Climbing Seattle Center
12:46PM 47.3622 -122.3103 180° South 205 236 5,600 2,160 Climbing Seattle Center
12:47PM 47.3144 -122.3714 221° Southwest 260 299 7,000 660 Climbing Seattle Center
12:48PM 46.9879 -122.3153 217° Southwest  Level Estimated
12:48PM 47.3069 -122.4781 264° West 262 302 7,000  Level Seattle Center
12:49PM 46.8724 -122.3161 219° Southwest  Level Estimated
12:49PM 47.3103 -122.5881 273° West 269 310 7,900  Level Seattle Center
12:50PM 46.7569 -122.3170 176° South  Level Estimated
12:50PM 47.3133 -122.7061 272° West 269 310 11,100  Level Seattle Center
12:51PM 47.2983 -122.8344 260° West 323 372 14,200 3,000 Climbing Seattle Center
12:52PM 47.2339 -122.9303 225° Southwest 337 388 17,300 2,880 Climbing Seattle Center
12:53PM 47.1556 -123.0236 219° Southwest 347 399 20,100 2,700 Climbing Seattle Center
12:54PM 47.0789 -123.1169 220° Southwest 355 409 22,900 2,880 Climbing Seattle Center
12:55PM 46.9994 -123.2019 216° Southwest 356 410 26,000 2,700 Climbing Seattle Center
12:56PM 46.9017 -123.1967 178° South 349 402 28,500 1,920 Climbing Seattle Center
12:57PM 46.8000 -123.1844 175° South 364 419 30,000 840 Climbing Seattle Center
12:58PM 46.6908 -123.1825 179° South 390 449 30,300 720 Climbing Seattle Center
12:59PM 46.5700 -123.1775 178° South 428 493 31,500 1,260 Climbing Seattle Center
01:00PM 46.4408 -123.1722 178° South 444 511 32,900 1,320 Climbing Seattle Center
01:01PM 46.3142 -123.1667 178° South 454 522 34,300 1,320 Climbing Seattle Center
01:02PM 46.1872 -123.1608 178° South 455 524 35,700 1,260 Climbing Seattle Center
01:03PM 46.0594 -123.1567 179° South 458 527 36,900 1,140 Climbing Seattle Center
01:04PM 45.9319 -123.1506 178° South 458 527 38,100 960 Climbing Seattle Center
01:05PM 45.8069 -123.1450 178° South 452 520 38,900 360 Climbing Seattle Center
01:06PM 45.6575 -123.1406 179° South 447 514 38,900  Level Seattle Center
01:07PM 45.5317 -123.1350 178° South 451 519 39,000  Climbing Seattle Center
01:08PM 45.4058 -123.1303 178° South 452 520 39,000 -60 Level Seattle Center
01:09PM 45.2769 -123.1231 178° South 459 528 38,900 -60 Descending Seattle Center
01:10PM 45.1483 -123.1161 178° South 460 529 38,900  Level Seattle Center
01:11PM 45.0189 -123.1125 179° South 461 531 39,000  Climbing Seattle Center
01:12PM 44.8886 -123.1061 178° South 463 533 38,900  Descending Seattle Center
01:13PM 44.7594 -123.1000 178° South 461 531 39,000  Climbing Seattle Center
01:14PM 44.6292 -123.0956 179° South 464 534 39,000 -60 Level Seattle Center
01:15PM 44.5000 -123.0897 178° South 463 533 38,900  Descending Seattle Center
01:16PM 44.3706 -123.0858 179° South 464 534 39,000  Climbing Seattle Center
01:17PM 44.2419 -123.0794 178° South 464 534 39,000 -60 Level Seattle Center
01:19PM 44.1122 -123.0758 179° South 465 535 38,900  Descending Seattle Center
01:20PM 43.9669 -123.0697 178° South 462 532 39,000  Climbing Seattle Center
01:21PM 43.8389 -123.0650 178° South 460 529 39,000  Level Seattle Center
01:22PM 43.7094 -123.0608 179° South 462 532 39,000  Level Seattle Center
01:23PM 43.5803 -123.0564 179° South 463 533 39,000  Level Seattle Center
01:24PM 43.4511 -123.0508 178° South 462 532 39,000  Level Seattle Center
01:25PM 43.3211 -123.0447 178° South 466 536 39,000  Level Seattle Center
01:26PM 43.1922 -123.0408 179° South 464 534 39,000  Level Seattle Center
01:27PM 43.0628 -123.0364 179° South 464 534 39,000  Level Seattle Center
01:28PM 42.9325 -123.0325 179° South 466 536 39,000  Level Seattle Center
01:29PM 42.8039 -123.0261 178° South 463 533 39,000  Level Seattle Center
01:30PM 42.6514 -123.0217 179° South 465 535 39,000  Level Seattle Center
01:31PM 42.5231 -123.0164 178° South 464 534 39,000  Level Seattle Center
01:32PM 42.3947 -123.0117 178° South 464 534 39,000  Level Seattle Center
01:33PM 42.2664 -123.0075 179° South 464 534 39,000  Level Seattle Center
01:34PM 42.1397 -123.0031 179° South 460 529 39,000  Level Seattle Center
01:35PM 42.0164 -122.9986 178° South 450 518 39,000  Level Seattle Center
01:36PM 41.8939 -122.9944 179° South 444 511 39,000  Level Seattle Center
01:37PM 41.7728 -122.9900 178° South 439 505 39,000  Level Seattle Center
01:38PM 41.6486 -122.9858 179° South 444 511 39,000  Level Seattle Center
01:39PM 41.5017 -122.9806 178° South 444 511 39,000  Level Seattle Center
01:40PM 41.3803 -122.9750 178° South 440 506 39,000  Level Seattle Center
01:41PM 41.2731 -122.9753 180° South 439 505 39,000  Level Seattle Center
01:42PM 41.1503 -122.9706 178° South 440 506 39,000 -60 Level Seattle Center
01:43PM 41.0272 -122.9669 179° South 442 509 38,900  Descending Seattle Center
01:44PM 40.8789 -122.9603 178° South 443 510 39,000  Climbing Seattle Center
01:45PM 40.7592 -122.9575 179° South 443 510 39,000  Level Seattle Center
01:46PM 40.6361 -122.9525 178° South 443 510 39,000  Level Seattle Center
01:47PM 40.5117 -122.9492 179° South 449 517 39,000  Level Seattle Center
01:48PM 40.3617 -122.9439 178° South 447 514 39,000  Level Oakland Center
01:49PM 40.2381 -122.9403 179° South 447 514 39,000  Level Oakland Center
01:50PM 40.1156 -122.9367 179° South 446 513 39,000  Level Oakland Center
01:51PM 39.9928 -122.9322 178° South 445 512 39,000  Level Oakland Center
01:52PM 39.8683 -122.9286 179° South 449 517 39,000  Level Oakland Center
01:53PM 39.7200 -122.9228 178° South 449 517 39,000  Level Oakland Center
01:54PM 39.5961 -122.9183 178° South 447 514 39,000 -600 Level Oakland Center
01:55PM 39.4692 -122.9133 178° South 450 518 37,800 -1,620 Descending Oakland Center
01:56PM 39.3475 -122.9108 179° South 456 525 35,700 -1,740 Descending Oakland Center
01:57PM 39.2147 -122.9061 178° South 473 544 34,300 -1,140 Descending Oakland Center
01:58PM 39.0800 -122.9017 179° South 484 557 33,400 -1,380 Descending Oakland Center
01:59PM 38.9433 -122.8972 179° South 491 565 31,500 -2,340 Descending Oakland Center
02:01PM 38.8213 -122.8833 180° South  Level FlightAware Approximate
02:01PM 38.6550 -122.8872 180° South 469 540 26,200  Level Oakland Center
02:02PM 38.5300 -122.8833 179° South 452 520 23,900 -2,220 Descending Oakland Center
02:04PM 38.4100 -122.8794 179° South 437 503 21,700 -2,160 Descending Oakland Center
02:05PM 38.2953 -122.8744 178° South 418 481 19,500 -2,040 Descending Oakland Center
02:06PM 38.1875 -122.8708 178° South 395 455 17,600 -1,920 Descending Oakland Center
02:07PM 38.0889 -122.8650 177° South 359 413 15,600 -2,160 Descending Oakland Center
02:08PM 37.9919 -122.7731 143° Southeast 368 423 13,200 -2,100 Descending Oakland Center
02:09PM 37.9178 -122.6928 139° Southeast 362 417 11,300 -1,140 Descending Oakland Center
02:10PM 37.8475 -122.6175 140° Southeast 346 398 10,900 -180 Descending Oakland Center
02:11PM 37.7761 -122.5414 140° Southeast 342 394 11,000  Climbing Oakland Center
02:12PM 37.6900 -122.4500 140° Southeast 340 391 11,000 -600 Level Oakland Center
02:14PM 37.5714 -122.3381 143° Southeast 268 308 9,300 -1,260 Descending Oakland Center
02:15PM 37.5056 -122.3003 156° South 262 302 7,200 -1,920 Descending Oakland Center
02:16PM 37.4714 -122.2278 121° Southeast 242 278 5,400 -1,080 Descending Oakland Center
02:17PM 37.4594 -122.1567 102° East 231 266 5,000 -540 Descending Oakland Center
02:18PM 37.5128 -122.1528 North 209 241 4,300 -1,020 Descending Oakland Center
02:19PM 37.5481 -122.2064 310° West 204 235 3,000 -1,380 Descending Oakland Center
02:20PM 37.5747 -122.2708 298° West 186 214 1,500 -1,080 Descending Oakland Center
02:21PM 37.5931 -122.3156 297° West 163 188 800 -660 Descending Oakland Center
02:22PM 37.6111 -122.3572 299° West 145 167 200 -600 Descending Oakland Center